sensor_id;sensor_type;location;lat;lon;timestamp;P1;durP1;ratioP1;P2;durP2;ratioP2
25163;SDS011;13440;50.860;13.662;2023-04-19T00:00:24;46.78;;;32.88;;
25163;SDS011;13440;50.860;13.662;2023-04-19T00:02:50;40.13;;;30.08;;
25163;SDS011;13440;50.860;13.662;2023-04-19T00:05:15;39.40;;;30.77;;
25163;SDS011;13440;50.860;13.662;2023-04-19T00:07:40;44.40;;;30.77;;
25163;SDS011;13440;50.860;13.662;2023-04-19T00:10:06;41.27;;;31.37;;
25163;SDS011;13440;50.860;13.662;2023-04-19T00:12:31;38.97;;;29.27;;
25163;SDS011;13440;50.860;13.662;2023-04-19T00:14:56;38.45;;;30.08;;
25163;SDS011;13440;50.860;13.662;2023-04-19T00:17:22;39.90;;;29.85;;
25163;SDS011;13440;50.860;13.662;2023-04-19T00:19:47;34.30;;;28.80;;
25163;SDS011;13440;50.860;13.662;2023-04-19T00:22:12;39.55;;;29.73;;
25163;SDS011;13440;50.860;13.662;2023-04-19T00:24:37;40.30;;;30.13;;
25163;SDS011;13440;50.860;13.662;2023-04-19T00:27:03;39.97;;;29.50;;
25163;SDS011;13440;50.860;13.662;2023-04-19T00:29:28;41.35;;;29.00;;
25163;SDS011;13440;50.860;13.662;2023-04-19T00:31:53;41.72;;;30.65;;
25163;SDS011;13440;50.860;13.662;2023-04-19T00:34:18;36.13;;;27.90;;
25163;SDS011;13440;50.860;13.662;2023-04-19T00:36:43;38.47;;;29.73;;
25163;SDS011;13440;50.860;13.662;2023-04-19T00:39:09;39.50;;;30.73;;
25163;SDS011;13440;50.860;13.662;2023-04-19T00:41:36;42.78;;;31.30;;
25163;SDS011;13440;50.860;13.662;2023-04-19T00:44:02;40.58;;;31.60;;
25163;SDS011;13440;50.860;13.662;2023-04-19T00:46:27;38.75;;;29.92;;
25163;SDS011;13440;50.860;13.662;2023-04-19T00:48:53;41.40;;;32.15;;
25163;SDS011;13440;50.860;13.662;2023-04-19T00:51:18;39.17;;;29.83;;
25163;SDS011;13440;50.860;13.662;2023-04-19T00:53:43;41.88;;;29.40;;
25163;SDS011;13440;50.860;13.662;2023-04-19T00:56:09;36.83;;;28.42;;
25163;SDS011;13440;50.860;13.662;2023-04-19T00:58:36;36.88;;;28.60;;
25163;SDS011;13440;50.860;13.662;2023-04-19T01:01:01;36.40;;;30.02;;
25163;SDS011;13440;50.860;13.662;2023-04-19T01:03:27;40.92;;;28.70;;
25163;SDS011;13440;50.860;13.662;2023-04-19T01:05:53;37.40;;;28.77;;
25163;SDS011;13440;50.860;13.662;2023-04-19T01:08:19;30.92;;;24.88;;
25163;SDS011;13440;50.860;13.662;2023-04-19T01:10:44;30.63;;;22.90;;
25163;SDS011;13440;50.860;13.662;2023-04-19T01:13:09;32.73;;;24.83;;
25163;SDS011;13440;50.860;13.662;2023-04-19T01:15:36;29.48;;;22.73;;
25163;SDS011;13440;50.860;13.662;2023-04-19T01:18:01;30.20;;;23.83;;
25163;SDS011;13440;50.860;13.662;2023-04-19T01:20:26;30.57;;;24.90;;
25163;SDS011;13440;50.860;13.662;2023-04-19T01:22:52;31.35;;;24.38;;
25163;SDS011;13440;50.860;13.662;2023-04-19T01:25:19;31.42;;;24.10;;
25163;SDS011;13440;50.860;13.662;2023-04-19T01:27:44;32.90;;;25.73;;
25163;SDS011;13440;50.860;13.662;2023-04-19T01:30:09;33.20;;;25.35;;
25163;SDS011;13440;50.860;13.662;2023-04-19T01:32:35;35.08;;;26.00;;
25163;SDS011;13440;50.860;13.662;2023-04-19T01:35:00;32.10;;;26.17;;
25163;SDS011;13440;50.860;13.662;2023-04-19T01:37:28;32.17;;;25.20;;
25163;SDS011;13440;50.860;13.662;2023-04-19T01:39:53;36.07;;;25.73;;
25163;SDS011;13440;50.860;13.662;2023-04-19T01:42:19;30.33;;;23.93;;
25163;SDS011;13440;50.860;13.662;2023-04-19T01:44:44;29.50;;;22.98;;
25163;SDS011;13440;50.860;13.662;2023-04-19T01:47:09;35.65;;;24.40;;
25163;SDS011;13440;50.860;13.662;2023-04-19T01:49:35;29.40;;;22.30;;
25163;SDS011;13440;50.860;13.662;2023-04-19T01:52:00;33.00;;;24.13;;
25163;SDS011;13440;50.860;13.662;2023-04-19T01:54:25;25.92;;;22.20;;
25163;SDS011;13440;50.860;13.662;2023-04-19T01:56:51;31.40;;;24.83;;
25163;SDS011;13440;50.860;13.662;2023-04-19T01:59:16;33.83;;;25.52;;
25163;SDS011;13440;50.860;13.662;2023-04-19T02:01:41;33.85;;;26.30;;
25163;SDS011;13440;50.860;13.662;2023-04-19T02:04:07;33.78;;;25.38;;
25163;SDS011;13440;50.860;13.662;2023-04-19T02:06:32;35.03;;;25.43;;
25163;SDS011;13440;50.860;13.662;2023-04-19T02:08:57;34.58;;;25.15;;
25163;SDS011;13440;50.860;13.662;2023-04-19T02:11:23;31.08;;;23.92;;
25163;SDS011;13440;50.860;13.662;2023-04-19T02:13:48;33.80;;;24.07;;
25163;SDS011;13440;50.860;13.662;2023-04-19T02:16:13;30.43;;;22.57;;
25163;SDS011;13440;50.860;13.662;2023-04-19T02:18:38;31.80;;;24.80;;
25163;SDS011;13440;50.860;13.662;2023-04-19T02:21:05;30.92;;;23.73;;
25163;SDS011;13440;50.860;13.662;2023-04-19T02:23:30;31.55;;;23.25;;
25163;SDS011;13440;50.860;13.662;2023-04-19T02:25:55;30.02;;;24.25;;
25163;SDS011;13440;50.860;13.662;2023-04-19T02:28:21;31.27;;;25.17;;
25163;SDS011;13440;50.860;13.662;2023-04-19T02:30:46;36.10;;;26.58;;
25163;SDS011;13440;50.860;13.662;2023-04-19T02:33:11;33.22;;;26.02;;
25163;SDS011;13440;50.860;13.662;2023-04-19T02:35:37;44.03;;;28.65;;
25163;SDS011;13440;50.860;13.662;2023-04-19T02:38:02;38.25;;;28.83;;
25163;SDS011;13440;50.860;13.662;2023-04-19T02:40:27;38.55;;;28.13;;
25163;SDS011;13440;50.860;13.662;2023-04-19T02:42:53;33.25;;;26.75;;
25163;SDS011;13440;50.860;13.662;2023-04-19T02:45:19;33.85;;;27.60;;
25163;SDS011;13440;50.860;13.662;2023-04-19T02:47:45;38.15;;;29.83;;
25163;SDS011;13440;50.860;13.662;2023-04-19T02:50:10;36.00;;;27.25;;
25163;SDS011;13440;50.860;13.662;2023-04-19T02:52:42;40.72;;;31.80;;
25163;SDS011;13440;50.860;13.662;2023-04-19T02:55:07;35.73;;;27.50;;
25163;SDS011;13440;50.860;13.662;2023-04-19T02:57:33;36.70;;;28.02;;
25163;SDS011;13440;50.860;13.662;2023-04-19T02:59:58;40.75;;;28.58;;
25163;SDS011;13440;50.860;13.662;2023-04-19T03:02:24;35.25;;;26.45;;
25163;SDS011;13440;50.860;13.662;2023-04-19T03:04:49;37.10;;;29.17;;
25163;SDS011;13440;50.860;13.662;2023-04-19T03:07:15;35.40;;;28.17;;
25163;SDS011;13440;50.860;13.662;2023-04-19T03:09:41;41.30;;;29.42;;
25163;SDS011;13440;50.860;13.662;2023-04-19T03:12:06;33.75;;;26.00;;
25163;SDS011;13440;50.860;13.662;2023-04-19T03:14:31;36.75;;;27.77;;
25163;SDS011;13440;50.860;13.662;2023-04-19T03:16:58;34.70;;;25.58;;
25163;SDS011;13440;50.860;13.662;2023-04-19T03:19:24;39.22;;;28.85;;
25163;SDS011;13440;50.860;13.662;2023-04-19T03:21:50;38.75;;;29.13;;
25163;SDS011;13440;50.860;13.662;2023-04-19T03:24:25;33.08;;;27.08;;
25163;SDS011;13440;50.860;13.662;2023-04-19T03:26:51;42.58;;;29.48;;
25163;SDS011;13440;50.860;13.662;2023-04-19T03:29:21;38.90;;;29.35;;
25163;SDS011;13440;50.860;13.662;2023-04-19T03:31:53;46.30;;;32.97;;
25163;SDS011;13440;50.860;13.662;2023-04-19T03:34:18;40.55;;;27.63;;
25163;SDS011;13440;50.860;13.662;2023-04-19T03:36:46;39.47;;;28.70;;
25163;SDS011;13440;50.860;13.662;2023-04-19T03:39:11;35.42;;;26.52;;
25163;SDS011;13440;50.860;13.662;2023-04-19T03:41:39;31.83;;;24.90;;
25163;SDS011;13440;50.860;13.662;2023-04-19T03:44:15;39.50;;;26.50;;
25163;SDS011;13440;50.860;13.662;2023-04-19T03:46:42;33.75;;;24.17;;
25163;SDS011;13440;50.860;13.662;2023-04-19T03:49:10;32.20;;;22.38;;
25163;SDS011;13440;50.860;13.662;2023-04-19T03:51:35;35.25;;;22.60;;
25163;SDS011;13440;50.860;13.662;2023-04-19T03:54:01;29.50;;;22.83;;
25163;SDS011;13440;50.860;13.662;2023-04-19T03:56:27;40.53;;;23.98;;
25163;SDS011;13440;50.860;13.662;2023-04-19T03:58:53;33.35;;;22.30;;
25163;SDS011;13440;50.860;13.662;2023-04-19T04:01:18;42.90;;;25.50;;
25163;SDS011;13440;50.860;13.662;2023-04-19T04:03:44;39.05;;;23.67;;
25163;SDS011;13440;50.860;13.662;2023-04-19T04:06:09;37.05;;;25.30;;
25163;SDS011;13440;50.860;13.662;2023-04-19T04:08:34;39.10;;;24.80;;
25163;SDS011;13440;50.860;13.662;2023-04-19T04:11:00;42.17;;;26.90;;
25163;SDS011;13440;50.860;13.662;2023-04-19T04:13:25;44.33;;;27.17;;
25163;SDS011;13440;50.860;13.662;2023-04-19T04:16:01;38.95;;;24.48;;
25163;SDS011;13440;50.860;13.662;2023-04-19T04:18:27;42.35;;;27.15;;
25163;SDS011;13440;50.860;13.662;2023-04-19T04:20:52;36.63;;;25.92;;
25163;SDS011;13440;50.860;13.662;2023-04-19T04:23:18;42.15;;;26.60;;
25163;SDS011;13440;50.860;13.662;2023-04-19T04:25:54;60.30;;;27.92;;
25163;SDS011;13440;50.860;13.662;2023-04-19T04:28:20;48.15;;;27.75;;
25163;SDS011;13440;50.860;13.662;2023-04-19T04:30:47;53.17;;;31.33;;
25163;SDS011;13440;50.860;13.662;2023-04-19T04:33:12;53.72;;;31.45;;
25163;SDS011;13440;50.860;13.662;2023-04-19T04:35:39;46.80;;;29.95;;
25163;SDS011;13440;50.860;13.662;2023-04-19T04:38:10;60.35;;;30.25;;
25163;SDS011;13440;50.860;13.662;2023-04-19T04:40:37;59.33;;;30.60;;
25163;SDS011;13440;50.860;13.662;2023-04-19T04:43:02;70.37;;;33.50;;
25163;SDS011;13440;50.860;13.662;2023-04-19T04:45:29;71.30;;;32.78;;
25163;SDS011;13440;50.860;13.662;2023-04-19T04:47:56;56.15;;;31.80;;
25163;SDS011;13440;50.860;13.662;2023-04-19T04:50:21;50.17;;;31.80;;
25163;SDS011;13440;50.860;13.662;2023-04-19T04:52:48;56.15;;;33.63;;
25163;SDS011;13440;50.860;13.662;2023-04-19T04:55:27;51.67;;;34.50;;
25163;SDS011;13440;50.860;13.662;2023-04-19T04:57:52;48.23;;;32.50;;
25163;SDS011;13440;50.860;13.662;2023-04-19T05:00:33;44.63;;;31.48;;
25163;SDS011;13440;50.860;13.662;2023-04-19T05:03:02;40.88;;;29.48;;
25163;SDS011;13440;50.860;13.662;2023-04-19T05:05:29;36.28;;;27.42;;
25163;SDS011;13440;50.860;13.662;2023-04-19T05:07:54;100.75;;;59.63;;
25163;SDS011;13440;50.860;13.662;2023-04-19T05:10:19;95.87;;;57.30;;
25163;SDS011;13440;50.860;13.662;2023-04-19T05:12:46;91.10;;;57.55;;
25163;SDS011;13440;50.860;13.662;2023-04-19T05:15:11;77.78;;;48.20;;
25163;SDS011;13440;50.860;13.662;2023-04-19T05:17:38;46.63;;;31.85;;
25163;SDS011;13440;50.860;13.662;2023-04-19T05:20:04;46.58;;;29.38;;
25163;SDS011;13440;50.860;13.662;2023-04-19T05:22:30;32.10;;;23.10;;
25163;SDS011;13440;50.860;13.662;2023-04-19T05:24:56;32.65;;;20.92;;
25163;SDS011;13440;50.860;13.662;2023-04-19T05:27:21;31.50;;;21.93;;
25163;SDS011;13440;50.860;13.662;2023-04-19T05:29:47;30.98;;;20.25;;
25163;SDS011;13440;50.860;13.662;2023-04-19T05:32:14;26.58;;;19.48;;
25163;SDS011;13440;50.860;13.662;2023-04-19T05:34:44;29.67;;;20.33;;
25163;SDS011;13440;50.860;13.662;2023-04-19T05:37:12;26.40;;;18.48;;
25163;SDS011;13440;50.860;13.662;2023-04-19T05:39:37;22.98;;;18.02;;
25163;SDS011;13440;50.860;13.662;2023-04-19T05:42:03;24.37;;;16.67;;
25163;SDS011;13440;50.860;13.662;2023-04-19T05:44:28;21.90;;;16.23;;
25163;SDS011;13440;50.860;13.662;2023-04-19T05:46:53;24.60;;;16.08;;
25163;SDS011;13440;50.860;13.662;2023-04-19T05:49:38;20.65;;;15.88;;
25163;SDS011;13440;50.860;13.662;2023-04-19T05:52:17;20.85;;;14.10;;
25163;SDS011;13440;50.860;13.662;2023-04-19T05:54:47;22.30;;;13.35;;
25163;SDS011;13440;50.860;13.662;2023-04-19T05:57:12;28.75;;;17.70;;
25163;SDS011;13440;50.860;13.662;2023-04-19T05:59:37;30.08;;;18.30;;
25163;SDS011;13440;50.860;13.662;2023-04-19T06:02:03;25.10;;;17.80;;
25163;SDS011;13440;50.860;13.662;2023-04-19T06:04:29;17.23;;;12.23;;
25163;SDS011;13440;50.860;13.662;2023-04-19T06:06:54;15.40;;;9.80;;
25163;SDS011;13440;50.860;13.662;2023-04-19T06:09:19;14.20;;;9.40;;
25163;SDS011;13440;50.860;13.662;2023-04-19T06:11:45;13.02;;;8.35;;
25163;SDS011;13440;50.860;13.662;2023-04-19T06:14:10;10.95;;;7.82;;
25163;SDS011;13440;50.860;13.662;2023-04-19T06:16:38;12.00;;;8.25;;
25163;SDS011;13440;50.860;13.662;2023-04-19T06:19:03;13.75;;;7.90;;
25163;SDS011;13440;50.860;13.662;2023-04-19T06:21:31;11.90;;;7.00;;
25163;SDS011;13440;50.860;13.662;2023-04-19T06:23:57;8.70;;;6.72;;
25163;SDS011;13440;50.860;13.662;2023-04-19T06:26:22;12.38;;;6.40;;
25163;SDS011;13440;50.860;13.662;2023-04-19T06:28:47;8.77;;;6.37;;
25163;SDS011;13440;50.860;13.662;2023-04-19T06:31:12;8.03;;;5.90;;
25163;SDS011;13440;50.860;13.662;2023-04-19T06:33:37;10.13;;;6.13;;
25163;SDS011;13440;50.860;13.662;2023-04-19T06:36:03;9.70;;;6.63;;
25163;SDS011;13440;50.860;13.662;2023-04-19T06:38:28;11.15;;;6.40;;
25163;SDS011;13440;50.860;13.662;2023-04-19T06:40:53;8.48;;;6.00;;
25163;SDS011;13440;50.860;13.662;2023-04-19T06:43:18;157.80;;;100.07;;
25163;SDS011;13440;50.860;13.662;2023-04-19T06:45:44;8.68;;;5.07;;
25163;SDS011;13440;50.860;13.662;2023-04-19T06:48:09;5.47;;;4.20;;
25163;SDS011;13440;50.860;13.662;2023-04-19T06:50:34;6.65;;;3.92;;
25163;SDS011;13440;50.860;13.662;2023-04-19T06:52:59;7.33;;;4.17;;
25163;SDS011;13440;50.860;13.662;2023-04-19T06:55:25;7.88;;;4.22;;
25163;SDS011;13440;50.860;13.662;2023-04-19T06:57:50;11.63;;;4.93;;
25163;SDS011;13440;50.860;13.662;2023-04-19T07:00:15;9.70;;;4.30;;
25163;SDS011;13440;50.860;13.662;2023-04-19T07:02:40;6.35;;;4.25;;
25163;SDS011;13440;50.860;13.662;2023-04-19T07:05:06;6.57;;;4.50;;
25163;SDS011;13440;50.860;13.662;2023-04-19T07:07:32;6.97;;;3.85;;
25163;SDS011;13440;50.860;13.662;2023-04-19T07:09:57;5.17;;;3.77;;
25163;SDS011;13440;50.860;13.662;2023-04-19T07:12:22;6.00;;;3.87;;
25163;SDS011;13440;50.860;13.662;2023-04-19T07:14:47;9.97;;;3.93;;
25163;SDS011;13440;50.860;13.662;2023-04-19T07:17:13;4.60;;;3.60;;
25163;SDS011;13440;50.860;13.662;2023-04-19T07:19:38;6.20;;;3.30;;
25163;SDS011;13440;50.860;13.662;2023-04-19T07:22:03;6.20;;;4.00;;
25163;SDS011;13440;50.860;13.662;2023-04-19T07:24:30;5.55;;;3.47;;
25163;SDS011;13440;50.860;13.662;2023-04-19T07:26:55;5.07;;;2.95;;
25163;SDS011;13440;50.860;13.662;2023-04-19T07:29:21;5.65;;;3.00;;
25163;SDS011;13440;50.860;13.662;2023-04-19T07:31:46;5.03;;;2.90;;
25163;SDS011;13440;50.860;13.662;2023-04-19T07:34:12;5.10;;;3.00;;
25163;SDS011;13440;50.860;13.662;2023-04-19T07:36:38;3.35;;;2.58;;
25163;SDS011;13440;50.860;13.662;2023-04-19T07:39:03;3.55;;;2.90;;
25163;SDS011;13440;50.860;13.662;2023-04-19T07:41:31;5.00;;;2.80;;
25163;SDS011;13440;50.860;13.662;2023-04-19T07:43:57;3.00;;;2.10;;
25163;SDS011;13440;50.860;13.662;2023-04-19T07:46:22;5.63;;;2.63;;
25163;SDS011;13440;50.860;13.662;2023-04-19T07:48:47;4.53;;;2.50;;
25163;SDS011;13440;50.860;13.662;2023-04-19T07:51:13;3.63;;;2.45;;
25163;SDS011;13440;50.860;13.662;2023-04-19T07:53:39;4.75;;;2.30;;
25163;SDS011;13440;50.860;13.662;2023-04-19T07:56:06;5.20;;;2.60;;
25163;SDS011;13440;50.860;13.662;2023-04-19T07:58:32;5.78;;;3.08;;
25163;SDS011;13440;50.860;13.662;2023-04-19T08:00:57;3.25;;;2.63;;
25163;SDS011;13440;50.860;13.662;2023-04-19T08:03:22;6.13;;;3.03;;
25163;SDS011;13440;50.860;13.662;2023-04-19T08:05:47;5.68;;;3.13;;
25163;SDS011;13440;50.860;13.662;2023-04-19T08:08:13;2.87;;;2.27;;
25163;SDS011;13440;50.860;13.662;2023-04-19T08:10:38;5.77;;;3.03;;
25163;SDS011;13440;50.860;13.662;2023-04-19T08:13:03;4.10;;;2.83;;
25163;SDS011;13440;50.860;13.662;2023-04-19T08:15:28;5.27;;;2.77;;
25163;SDS011;13440;50.860;13.662;2023-04-19T08:17:54;5.28;;;2.90;;
25163;SDS011;13440;50.860;13.662;2023-04-19T08:20:19;4.47;;;3.10;;
25163;SDS011;13440;50.860;13.662;2023-04-19T08:22:46;90.82;;;61.67;;
25163;SDS011;13440;50.860;13.662;2023-04-19T08:25:12;11.00;;;6.60;;
25163;SDS011;13440;50.860;13.662;2023-04-19T08:27:37;7.40;;;3.00;;
25163;SDS011;13440;50.860;13.662;2023-04-19T08:30:02;4.37;;;2.83;;
25163;SDS011;13440;50.860;13.662;2023-04-19T08:32:28;3.45;;;2.83;;
25163;SDS011;13440;50.860;13.662;2023-04-19T08:34:53;4.93;;;3.30;;
25163;SDS011;13440;50.860;13.662;2023-04-19T08:37:18;6.45;;;3.03;;
25163;SDS011;13440;50.860;13.662;2023-04-19T08:39:43;2.60;;;2.38;;
25163;SDS011;13440;50.860;13.662;2023-04-19T08:42:09;4.30;;;2.85;;
25163;SDS011;13440;50.860;13.662;2023-04-19T08:44:34;4.80;;;2.90;;
25163;SDS011;13440;50.860;13.662;2023-04-19T08:47:02;6.07;;;3.50;;
25163;SDS011;13440;50.860;13.662;2023-04-19T08:49:27;91.90;;;62.22;;
25163;SDS011;13440;50.860;13.662;2023-04-19T08:51:53;32.08;;;22.40;;
25163;SDS011;13440;50.860;13.662;2023-04-19T08:54:19;4.28;;;2.88;;
25163;SDS011;13440;50.860;13.662;2023-04-19T08:56:45;5.53;;;2.92;;
25163;SDS011;13440;50.860;13.662;2023-04-19T08:59:10;4.97;;;3.23;;
25163;SDS011;13440;50.860;13.662;2023-04-19T09:01:37;3.28;;;2.90;;
25163;SDS011;13440;50.860;13.662;2023-04-19T09:04:03;3.88;;;2.90;;
25163;SDS011;13440;50.860;13.662;2023-04-19T09:06:33;8.45;;;3.50;;
25163;SDS011;13440;50.860;13.662;2023-04-19T09:11:42;3.73;;;2.77;;
25163;SDS011;13440;50.860;13.662;2023-04-19T09:14:08;5.35;;;3.40;;
25163;SDS011;13440;50.860;13.662;2023-04-19T09:16:34;4.43;;;2.85;;
25163;SDS011;13440;50.860;13.662;2023-04-19T09:19:01;3.78;;;2.88;;
25163;SDS011;13440;50.860;13.662;2023-04-19T09:21:27;4.25;;;3.20;;
25163;SDS011;13440;50.860;13.662;2023-04-19T09:23:53;5.50;;;3.10;;
25163;SDS011;13440;50.860;13.662;2023-04-19T09:26:18;5.20;;;3.33;;
25163;SDS011;13440;50.860;13.662;2023-04-19T09:29:00;4.18;;;3.10;;
25163;SDS011;13440;50.860;13.662;2023-04-19T09:31:27;5.55;;;3.65;;
25163;SDS011;13440;50.860;13.662;2023-04-19T09:33:52;4.78;;;3.40;;
25163;SDS011;13440;50.860;13.662;2023-04-19T09:36:31;7.25;;;3.80;;
25163;SDS011;13440;50.860;13.662;2023-04-19T09:38:56;6.15;;;3.60;;
25163;SDS011;13440;50.860;13.662;2023-04-19T09:41:22;5.60;;;3.50;;
25163;SDS011;13440;50.860;13.662;2023-04-19T09:43:48;5.40;;;3.20;;
25163;SDS011;13440;50.860;13.662;2023-04-19T09:46:29;4.82;;;3.33;;
25163;SDS011;13440;50.860;13.662;2023-04-19T09:48:54;6.15;;;4.10;;
25163;SDS011;13440;50.860;13.662;2023-04-19T09:51:20;5.38;;;3.03;;
25163;SDS011;13440;50.860;13.662;2023-04-19T09:53:46;5.25;;;4.22;;
25163;SDS011;13440;50.860;13.662;2023-04-19T09:56:12;7.25;;;3.85;;
25163;SDS011;13440;50.860;13.662;2023-04-19T09:58:37;5.45;;;4.35;;
25163;SDS011;13440;50.860;13.662;2023-04-19T10:01:02;5.40;;;3.63;;
25163;SDS011;13440;50.860;13.662;2023-04-19T10:03:28;9.20;;;4.22;;
25163;SDS011;13440;50.860;13.662;2023-04-19T10:05:54;5.07;;;3.42;;
25163;SDS011;13440;50.860;13.662;2023-04-19T10:08:19;8.33;;;3.63;;
25163;SDS011;13440;50.860;13.662;2023-04-19T10:10:44;7.80;;;4.28;;
25163;SDS011;13440;50.860;13.662;2023-04-19T10:13:11;5.40;;;4.07;;
25163;SDS011;13440;50.860;13.662;2023-04-19T10:15:37;7.13;;;3.80;;
25163;SDS011;13440;50.860;13.662;2023-04-19T10:18:03;9.00;;;4.65;;
25163;SDS011;13440;50.860;13.662;2023-04-19T10:22:53;13.20;;;8.37;;
25163;SDS011;13440;50.860;13.662;2023-04-19T10:25:19;6.57;;;4.35;;
25163;SDS011;13440;50.860;13.662;2023-04-19T10:27:51;7.60;;;4.20;;
25163;SDS011;13440;50.860;13.662;2023-04-19T10:32:43;8.37;;;4.20;;
25163;SDS011;13440;50.860;13.662;2023-04-19T10:35:19;5.45;;;3.80;;
25163;SDS011;13440;50.860;13.662;2023-04-19T10:38:00;5.50;;;3.88;;
25163;SDS011;13440;50.860;13.662;2023-04-19T10:45:35;7.90;;;4.20;;
25163;SDS011;13440;50.860;13.662;2023-04-19T10:48:03;7.50;;;5.30;;
25163;SDS011;13440;50.860;13.662;2023-04-19T10:50:29;9.65;;;4.05;;
25163;SDS011;13440;50.860;13.662;2023-04-19T10:52:54;5.93;;;3.90;;
25163;SDS011;13440;50.860;13.662;2023-04-19T10:55:19;7.03;;;4.38;;
25163;SDS011;13440;50.860;13.662;2023-04-19T10:58:00;6.78;;;3.95;;
25163;SDS011;13440;50.860;13.662;2023-04-19T11:00:26;8.95;;;4.00;;
25163;SDS011;13440;50.860;13.662;2023-04-19T11:02:55;23.20;;;14.27;;
25163;SDS011;13440;50.860;13.662;2023-04-19T11:05:20;4.80;;;3.63;;
25163;SDS011;13440;50.860;13.662;2023-04-19T11:07:45;22.90;;;15.13;;
25163;SDS011;13440;50.860;13.662;2023-04-19T11:10:11;10.57;;;4.20;;
25163;SDS011;13440;50.860;13.662;2023-04-19T11:12:36;5.88;;;3.92;;
25163;SDS011;13440;50.860;13.662;2023-04-19T11:15:01;11.80;;;7.80;;
25163;SDS011;13440;50.860;13.662;2023-04-19T11:17:30;11.98;;;8.52;;
25163;SDS011;13440;50.860;13.662;2023-04-19T11:20:03;9.38;;;5.68;;
25163;SDS011;13440;50.860;13.662;2023-04-19T11:25:03;10.23;;;4.25;;
25163;SDS011;13440;50.860;13.662;2023-04-19T11:27:29;6.13;;;3.58;;
25163;SDS011;13440;50.860;13.662;2023-04-19T11:30:00;17.27;;;9.70;;
25163;SDS011;13440;50.860;13.662;2023-04-19T11:32:25;7.57;;;3.90;;
25163;SDS011;13440;50.860;13.662;2023-04-19T11:34:51;5.53;;;4.15;;
25163;SDS011;13440;50.860;13.662;2023-04-19T11:37:16;5.72;;;3.85;;
25163;SDS011;13440;50.860;13.662;2023-04-19T11:39:45;3.90;;;3.25;;
25163;SDS011;13440;50.860;13.662;2023-04-19T11:42:18;8.32;;;4.05;;
25163;SDS011;13440;50.860;13.662;2023-04-19T11:44:47;7.55;;;3.30;;
25163;SDS011;13440;50.860;13.662;2023-04-19T11:47:12;7.30;;;3.95;;
25163;SDS011;13440;50.860;13.662;2023-04-19T11:49:37;7.55;;;3.47;;
25163;SDS011;13440;50.860;13.662;2023-04-19T11:52:04;4.70;;;3.25;;
25163;SDS011;13440;50.860;13.662;2023-04-19T11:54:29;4.85;;;3.60;;
25163;SDS011;13440;50.860;13.662;2023-04-19T11:56:55;6.00;;;3.38;;
25163;SDS011;13440;50.860;13.662;2023-04-19T11:59:21;5.90;;;3.33;;
25163;SDS011;13440;50.860;13.662;2023-04-19T12:01:46;4.77;;;3.87;;
25163;SDS011;13440;50.860;13.662;2023-04-19T12:04:11;7.57;;;3.00;;
25163;SDS011;13440;50.860;13.662;2023-04-19T12:06:37;7.50;;;3.73;;
25163;SDS011;13440;50.860;13.662;2023-04-19T12:09:05;8.32;;;4.38;;
25163;SDS011;13440;50.860;13.662;2023-04-19T12:11:41;8.52;;;3.70;;
25163;SDS011;13440;50.860;13.662;2023-04-19T12:14:10;6.25;;;3.55;;
25163;SDS011;13440;50.860;13.662;2023-04-19T12:16:35;6.70;;;3.55;;
25163;SDS011;13440;50.860;13.662;2023-04-19T12:19:10;5.95;;;2.92;;
25163;SDS011;13440;50.860;13.662;2023-04-19T12:21:37;7.05;;;3.47;;
25163;SDS011;13440;50.860;13.662;2023-04-19T12:24:03;4.78;;;3.30;;
25163;SDS011;13440;50.860;13.662;2023-04-19T12:26:28;6.22;;;3.08;;
25163;SDS011;13440;50.860;13.662;2023-04-19T12:28:54;8.55;;;3.50;;
25163;SDS011;13440;50.860;13.662;2023-04-19T12:31:19;5.80;;;3.30;;
25163;SDS011;13440;50.860;13.662;2023-04-19T12:33:45;6.78;;;5.22;;
25163;SDS011;13440;50.860;13.662;2023-04-19T12:36:10;6.63;;;3.80;;
25163;SDS011;13440;50.860;13.662;2023-04-19T12:38:36;6.75;;;3.60;;
25163;SDS011;13440;50.860;13.662;2023-04-19T12:41:01;5.43;;;4.00;;
25163;SDS011;13440;50.860;13.662;2023-04-19T12:43:26;5.50;;;3.70;;
25163;SDS011;13440;50.860;13.662;2023-04-19T12:45:54;5.88;;;3.38;;
25163;SDS011;13440;50.860;13.662;2023-04-19T12:48:19;5.97;;;3.45;;
25163;SDS011;13440;50.860;13.662;2023-04-19T12:50:44;6.23;;;3.40;;
25163;SDS011;13440;50.860;13.662;2023-04-19T12:53:09;6.00;;;3.60;;
25163;SDS011;13440;50.860;13.662;2023-04-19T12:55:35;5.50;;;3.30;;
25163;SDS011;13440;50.860;13.662;2023-04-19T12:58:00;4.18;;;3.03;;
25163;SDS011;13440;50.860;13.662;2023-04-19T13:00:25;4.17;;;3.17;;
25163;SDS011;13440;50.860;13.662;2023-04-19T13:02:50;7.05;;;3.58;;
25163;SDS011;13440;50.860;13.662;2023-04-19T13:05:16;5.38;;;3.28;;
25163;SDS011;13440;50.860;13.662;2023-04-19T13:07:41;7.03;;;3.83;;
25163;SDS011;13440;50.860;13.662;2023-04-19T13:10:06;5.43;;;4.03;;
25163;SDS011;13440;50.860;13.662;2023-04-19T13:12:32;7.28;;;3.40;;
25163;SDS011;13440;50.860;13.662;2023-04-19T13:14:57;7.97;;;3.40;;
25163;SDS011;13440;50.860;13.662;2023-04-19T13:17:22;5.35;;;3.38;;
25163;SDS011;13440;50.860;13.662;2023-04-19T13:19:47;6.43;;;3.63;;
25163;SDS011;13440;50.860;13.662;2023-04-19T13:22:13;7.07;;;3.87;;
25163;SDS011;13440;50.860;13.662;2023-04-19T13:24:38;5.75;;;3.85;;
25163;SDS011;13440;50.860;13.662;2023-04-19T13:27:03;6.25;;;3.55;;
25163;SDS011;13440;50.860;13.662;2023-04-19T13:29:28;7.53;;;3.90;;
25163;SDS011;13440;50.860;13.662;2023-04-19T13:31:54;5.63;;;3.83;;
25163;SDS011;13440;50.860;13.662;2023-04-19T13:34:19;6.13;;;3.80;;
25163;SDS011;13440;50.860;13.662;2023-04-19T13:36:45;7.68;;;4.85;;
25163;SDS011;13440;50.860;13.662;2023-04-19T13:39:10;7.15;;;5.22;;
25163;SDS011;13440;50.860;13.662;2023-04-19T13:41:35;7.17;;;3.97;;
25163;SDS011;13440;50.860;13.662;2023-04-19T13:44:00;5.78;;;4.25;;
25163;SDS011;13440;50.860;13.662;2023-04-19T13:46:26;6.67;;;4.00;;
25163;SDS011;13440;50.860;13.662;2023-04-19T13:48:51;6.63;;;4.07;;
25163;SDS011;13440;50.860;13.662;2023-04-19T13:51:16;42.70;;;24.63;;
25163;SDS011;13440;50.860;13.662;2023-04-19T13:53:41;5.93;;;4.28;;
25163;SDS011;13440;50.860;13.662;2023-04-19T13:56:06;6.87;;;3.80;;
25163;SDS011;13440;50.860;13.662;2023-04-19T13:58:34;8.27;;;4.63;;
25163;SDS011;13440;50.860;13.662;2023-04-19T14:01:00;4.85;;;3.83;;
25163;SDS011;13440;50.860;13.662;2023-04-19T14:03:25;5.10;;;3.80;;
25163;SDS011;13440;50.860;13.662;2023-04-19T14:05:50;7.32;;;4.30;;
25163;SDS011;13440;50.860;13.662;2023-04-19T14:08:16;7.30;;;4.40;;
25163;SDS011;13440;50.860;13.662;2023-04-19T14:10:41;5.13;;;4.07;;
25163;SDS011;13440;50.860;13.662;2023-04-19T14:13:06;7.47;;;4.50;;
25163;SDS011;13440;50.860;13.662;2023-04-19T14:15:31;5.95;;;4.00;;
25163;SDS011;13440;50.860;13.662;2023-04-19T14:17:57;5.68;;;4.03;;
25163;SDS011;13440;50.860;13.662;2023-04-19T14:20:22;11.65;;;4.32;;
25163;SDS011;13440;50.860;13.662;2023-04-19T14:22:47;6.72;;;4.13;;
25163;SDS011;13440;50.860;13.662;2023-04-19T14:25:12;6.28;;;3.78;;
25163;SDS011;13440;50.860;13.662;2023-04-19T14:27:41;7.40;;;4.30;;
25163;SDS011;13440;50.860;13.662;2023-04-19T14:30:07;6.25;;;4.70;;